Time;durP1;ratioP1;P1;durP2;ratioP2;P2;SDS_P1;SDS_P2;PMS_P1;PMS_P2;Temp;Humidity;BMP_temperature;BMP_pressure;BME280_temperature;BME280_humidity;BME280_pressure;Samples;Min_cycle;Max_cycle;Signal;HPM_P1;HPM_P2
2023/04/05 00:00:53;;;;;;;14.65;7.90;;;;;;;4.07;100.00;101278.13;5017782;28;20312;-77
2023/04/05 00:03:18;;;;;;;13.52;7.38;;;;;;;4.01;100.00;101280.78;5001369;28;20048;-77
2023/04/05 00:05:44;;;;;;;11.85;7.15;;;;;;;3.97;100.00;101281.44;5000933;28;20075;-76
2023/04/05 00:08:17;;;;;;;12.95;7.40;;;;;;;3.96;100.00;101279.78;5030542;28;20125;-76
2023/04/05 00:10:42;;;;;;;12.63;7.32;;;;;;;3.94;100.00;101279.16;5046445;28;20597;-77
2023/04/05 00:13:08;;;;;;;13.23;7.53;;;;;;;3.89;100.00;101271.59;5014114;28;20030;-76
2023/04/05 00:15:33;;;;;;;14.00;8.00;;;;;;;3.88;100.00;101275.44;5049245;28;20040;-76
2023/04/05 00:18:02;;;;;;;10.70;7.40;;;;;;;3.80;100.00;101271.09;5021736;28;20160;-77
2023/04/05 00:20:28;;;;;;;12.70;7.63;;;;;;;3.83;100.00;101277.19;5036728;28;20025;-77
2023/04/05 00:22:53;;;;;;;15.10;7.78;;;;;;;3.82;100.00;101276.38;5033937;28;20039;-77
2023/04/05 00:25:20;;;;;;;13.52;7.57;;;;;;;3.77;100.00;101281.72;5017470;28;20025;-77
2023/04/05 00:27:46;;;;;;;15.30;7.32;;;;;;;3.78;100.00;101277.88;5014116;28;20018;-76
2023/04/05 00:30:11;;;;;;;11.98;7.90;;;;;;;3.73;100.00;101275.84;4997913;28;20041;-76
2023/04/05 00:32:37;;;;;;;12.48;7.63;;;;;;;3.66;100.00;101276.97;5039635;28;20497;-77
2023/04/05 00:35:03;;;;;;;13.20;7.47;;;;;;;3.69;100.00;101277.34;5016343;28;20037;-76
2023/04/05 00:37:28;;;;;;;13.63;7.53;;;;;;;3.66;100.00;101291.56;5016884;28;20029;-77
2023/04/05 00:39:56;;;;;;;17.45;8.70;;;;;;;3.64;100.00;101285.44;5017624;28;20037;-76
2023/04/05 00:42:22;;;;;;;15.27;8.48;;;;;;;3.62;100.00;101282.06;5002688;28;20037;-76
2023/04/05 00:44:47;;;;;;;17.42;8.00;;;;;;;3.59;100.00;101274.28;5039658;28;20041;-77
2023/04/05 00:47:12;;;;;;;13.65;8.32;;;;;;;3.50;100.00;101275.69;5018198;28;20382;-77
2023/04/05 00:49:38;;;;;;;14.27;8.25;;;;;;;3.47;100.00;101273.38;5050136;28;20058;-76
2023/04/05 00:52:04;;;;;;;17.33;8.60;;;;;;;3.44;100.00;101271.94;5021382;28;20042;-76
2023/04/05 00:54:29;;;;;;;12.48;7.85;;;;;;;3.44;100.00;101268.34;5037301;28;20482;-76
2023/04/05 00:56:55;;;;;;;13.95;8.07;;;;;;;3.37;100.00;101262.91;5020951;28;20037;-76
2023/04/05 00:59:21;;;;;;;14.77;8.10;;;;;;;3.36;100.00;101262.09;5020956;28;20068;-76
2023/04/05 01:01:53;;;;;;;16.33;8.65;;;;;;;3.36;100.00;101253.00;5037602;28;20087;-76
2023/04/05 01:04:23;;;;;;;14.93;8.38;;;;;;;3.32;100.00;101249.91;5002473;28;20040;-76
2023/04/05 01:06:53;;;;;;;15.45;8.55;;;;;;;3.29;100.00;101255.00;5050980;28;20060;-77
2023/04/05 01:09:36;;;;;;;15.10;8.35;;;;;;;3.27;100.00;101247.00;5041445;28;20113;-76
2023/04/05 01:12:05;;;;;;;13.75;7.93;;;;;;;3.23;100.00;101245.78;5022629;28;20030;-76
2023/04/05 01:14:31;;;;;;;13.52;8.18;;;;;;;3.23;100.00;101240.28;5021051;28;20037;-76
2023/04/05 01:16:56;;;;;;;15.65;8.95;;;;;;;3.19;100.00;101233.56;5018988;28;20038;-76
2023/04/05 01:19:28;;;;;;;16.20;8.55;;;;;;;3.15;100.00;101235.09;5020811;28;20041;-76
2023/04/05 01:21:57;;;;;;;17.02;8.98;;;;;;;3.11;100.00;101234.69;5019791;28;20081;-77
2023/04/05 01:24:45;;;;;;;14.57;8.50;;;;;;;3.09;100.00;101225.00;5038354;28;20037;-76
2023/04/05 01:27:16;;;;;;;14.50;8.35;;;;;;;3.06;100.00;101228.19;5050321;28;20101;-76
2023/04/05 01:29:45;;;;;;;15.32;8.55;;;;;;;3.01;100.00;101226.16;5027097;28;20079;-76
2023/04/05 01:32:17;;;;;;;13.80;8.80;;;;;;;2.96;100.00;101225.16;5031266;28;20121;-76
2023/04/05 01:35:15;;;;;;;13.43;8.05;;;;;;;2.99;100.00;101221.97;5020572;28;20387;-76
2023/04/05 01:37:41;;;;;;;13.77;7.72;;;;;;;2.97;100.00;101224.09;5011477;28;20037;-76
2023/04/05 01:40:07;;;;;;;11.48;7.43;;;;;;;2.90;100.00;101214.03;5019985;28;20045;-76
2023/04/05 01:42:32;;;;;;;13.02;8.32;;;;;;;2.89;100.00;101211.50;5003964;28;20036;-76
2023/04/05 01:44:58;;;;;;;15.32;8.48;;;;;;;2.93;100.00;101218.22;5021446;28;20034;-76
2023/04/05 01:47:23;;;;;;;15.30;8.52;;;;;;;2.89;100.00;101212.31;5020176;28;20029;-76
2023/04/05 01:49:49;;;;;;;15.82;8.35;;;;;;;2.85;100.00;101216.59;5021818;28;20099;-76
2023/04/05 01:52:14;;;;;;;13.38;7.85;;;;;;;2.84;100.00;101217.66;5003527;28;20033;-76
2023/04/05 01:54:40;;;;;;;15.13;7.85;;;;;;;2.85;100.00;101218.50;5052589;28;20029;-76
2023/04/05 01:57:05;;;;;;;13.48;7.85;;;;;;;2.79;100.00;101212.00;5054901;28;20034;-76
2023/04/05 01:59:31;;;;;;;13.02;7.60;;;;;;;2.79;100.00;101214.75;5039117;28;20068;-76
2023/04/05 02:01:56;;;;;;;18.10;8.00;;;;;;;2.78;100.00;101210.31;5053150;28;20044;-76
2023/04/05 02:04:22;;;;;;;11.70;7.18;;;;;;;2.77;100.00;101214.13;5016337;28;20037;-77
2023/04/05 02:06:47;;;;;;;12.77;7.10;;;;;;;2.76;100.00;101211.59;5035936;28;20441;-76
2023/04/05 02:09:13;;;;;;;13.95;7.50;;;;;;;2.76;100.00;101211.59;5050796;28;20030;-77
2023/04/05 02:11:38;;;;;;;14.68;8.23;;;;;;;2.72;100.00;101204.91;5036399;28;20033;-76
2023/04/05 02:14:04;;;;;;;12.60;7.93;;;;;;;2.68;100.00;101210.00;5036015;28;20044;-76
2023/04/05 02:16:32;;;;;;;13.75;7.47;;;;;;;2.67;100.00;101208.31;5016722;28;20034;-76
2023/04/05 02:18:58;;;;;;;14.43;7.80;;;;;;;2.64;100.00;101206.03;4998627;28;20648;-76
2023/04/05 02:21:24;;;;;;;13.65;7.32;;;;;;;2.60;100.00;101202.06;5032957;28;20116;-76
2023/04/05 02:23:50;;;;;;;12.20;6.93;;;;;;;2.62;100.00;101197.19;5023475;28;20033;-76
2023/04/05 02:26:16;;;;;;;12.13;7.60;;;;;;;2.56;100.00;101190.69;5029371;28;20039;-76
2023/04/05 02:28:41;;;;;;;12.48;7.35;;;;;;;2.53;100.00;101190.31;5030279;28;20080;-76
2023/04/05 02:31:09;;;;;;;13.07;8.00;;;;;;;2.51;100.00;101189.69;5056015;28;20053;-76
2023/04/05 02:33:35;;;;;;;14.80;7.60;;;;;;;2.50;100.00;101185.25;5035158;28;20033;-76
2023/04/05 02:36:03;;;;;;;11.88;7.03;;;;;;;2.44;100.00;101179.59;5019182;28;20029;-76
2023/04/05 02:38:29;;;;;;;11.63;7.07;;;;;;;2.42;100.00;101180.91;5035667;28;20063;-76
2023/04/05 02:40:54;;;;;;;11.48;6.65;;;;;;;2.38;100.00;101182.41;5052305;28;20044;-76
2023/04/05 02:43:20;;;;;;;10.52;6.65;;;;;;;2.38;100.00;101182.41;4986304;28;20049;-76
2023/04/05 02:45:45;;;;;;;11.52;6.82;;;;;;;2.31;100.00;101184.38;5019515;28;20421;-76
2023/04/05 02:48:11;;;;;;;12.68;6.72;;;;;;;2.30;100.00;101191.75;5038280;28;20060;-76
2023/04/05 02:50:36;;;;;;;11.75;7.00;;;;;;;2.26;100.00;101187.78;5054768;28;20029;-76
2023/04/05 02:53:02;;;;;;;12.85;6.72;;;;;;;2.22;100.00;101183.81;5020458;28;20033;-76
2023/04/05 02:55:29;;;;;;;11.63;7.10;;;;;;;2.22;100.00;101181.06;5002759;28;20022;-76
2023/04/05 02:57:59;;;;;;;13.00;7.20;;;;;;;2.18;100.00;101177.94;5027380;28;20561;-76
2023/04/05 03:00:25;;;;;;;14.05;7.00;;;;;;;2.16;100.00;101173.72;5035605;28;20055;-76
2023/04/05 03:02:51;;;;;;;11.27;7.00;;;;;;;2.17;100.00;101178.13;5018626;28;20034;-76
2023/04/05 03:05:17;;;;;;;12.57;7.30;;;;;;;2.12;100.00;101181.56;5022835;28;20498;-76
2023/04/05 03:07:43;;;;;;;16.35;7.53;;;;;;;2.07;100.00;101180.56;5028728;28;20025;-76
2023/04/05 03:10:08;;;;;;;12.75;6.90;;;;;;;2.07;100.00;101186.03;5044652;28;20087;-76
2023/04/05 03:12:34;;;;;;;11.80;6.95;;;;;;;1.99;100.00;101178.91;5004178;28;20044;-77
2023/04/05 03:14:59;;;;;;;12.20;7.40;;;;;;;1.97;100.00;101181.03;5006987;28;20087;-76
2023/04/05 03:17:25;;;;;;;12.85;7.20;;;;;;;1.94;100.00;101179.56;5019577;28;20029;-76
2023/04/05 03:19:51;;;;;;;12.15;7.40;;;;;;;1.88;100.00;101183.19;5002690;28;20037;-76
2023/04/05 03:22:16;;;;;;;13.82;7.00;;;;;;;1.93;100.00;101171.59;5028740;28;20045;-76
2023/04/05 03:24:42;;;;;;;11.45;6.88;;;;;;;1.89;100.00;101173.91;5018595;28;20417;-76
2023/04/05 03:27:07;;;;;;;9.65;6.68;;;;;;;1.86;100.00;101174.34;5019114;28;20083;-76
2023/04/05 03:29:33;;;;;;;12.60;7.03;;;;;;;1.86;100.00;101168.88;5002263;28;20034;-76
2023/04/05 03:31:58;;;;;;;11.00;6.18;;;;;;;1.81;100.00;101165.94;5018011;28;20028;-76
2023/04/05 03:34:27;;;;;;;10.57;6.70;;;;;;;1.82;100.00;101159.44;5018462;28;20145;-76
2023/04/05 03:36:53;;;;;;;11.70;6.38;;;;;;;1.77;100.00;101156.50;5035562;28;20029;-76
2023/04/05 03:39:19;;;;;;;10.13;6.60;;;;;;;1.71;100.00;101160.13;5021889;28;20037;-76
2023/04/05 03:41:44;;;;;;;9.75;6.65;;;;;;;1.73;100.00;101158.00;5021794;28;20025;-76
2023/04/05 03:44:10;;;;;;;9.23;5.85;;;;;;;1.71;100.00;101160.97;5017409;28;20029;-75
2023/04/05 03:46:36;;;;;;;10.13;6.40;;;;;;;1.71;100.00;101150.00;5033264;28;20099;-76
2023/04/05 03:49:02;;;;;;;10.40;6.15;;;;;;;1.66;100.00;101155.31;5025902;28;20049;-76
2023/04/05 03:51:28;;;;;;;9.63;5.95;;;;;;;1.60;100.00;101156.19;5003618;28;20026;-76
2023/04/05 03:53:53;;;;;;;9.50;6.07;;;;;;;1.61;100.00;101152.38;5017632;28;20032;-76
2023/04/05 03:56:20;;;;;;;8.98;5.70;;;;;;;1.59;100.00;101156.38;5017706;28;20060;-76
2023/04/05 03:58:46;;;;;;;12.30;6.50;;;;;;;1.55;100.00;101150.53;5015997;28;20034;-76
2023/04/05 04:01:11;;;;;;;10.57;6.13;;;;;;;1.58;100.00;101154.72;5034213;28;20034;-76
2023/04/05 04:03:37;;;;;;;11.15;5.80;;;;;;;1.57;100.00;101156.63;5019762;28;20033;-76
2023/04/05 04:06:03;;;;;;;10.30;6.20;;;;;;;1.58;100.00;101143.75;5037858;28;20029;-76
2023/04/05 04:08:29;;;;;;;10.48;6.38;;;;;;;1.55;100.00;101151.34;5014353;28;20028;-76
2023/04/05 04:10:55;;;;;;;12.77;6.13;;;;;;;1.57;100.00;101151.16;5049521;28;20037;-76
2023/04/05 04:13:20;;;;;;;7.95;5.65;;;;;;;1.55;100.00;101153.25;5000889;28;20110;-76
2023/04/05 04:15:46;;;;;;;9.88;6.18;;;;;;;1.59;100.00;101145.44;5050733;28;20029;-76
2023/04/05 04:18:11;;;;;;;9.38;5.78;;;;;;;1.62;100.00;101155.97;5033847;28;20371;-76
2023/04/05 04:20:40;;;;;;;14.23;6.13;;;;;;;1.61;100.00;101152.38;5017618;28;20041;-76
2023/04/05 04:23:08;;;;;;;11.52;6.50;;;;;;;1.64;100.00;101149.19;5017182;28;20108;-77
2023/04/05 04:25:35;;;;;;;12.13;6.15;;;;;;;1.62;100.00;101153.25;5034020;28;20044;-76
2023/04/05 04:28:02;;;;;;;8.52;5.63;;;;;;;1.65;100.00;101150.06;5018141;28;20032;-76
2023/04/05 04:30:28;;;;;;;11.60;5.70;;;;;;;1.68;100.00;101146.88;5037910;28;20038;-76
2023/04/05 04:32:53;;;;;;;11.35;6.20;;;;;;;1.66;100.00;101143.50;5018179;28;20091;-76
2023/04/05 04:35:27;;;;;;;9.40;5.50;;;;;;;1.69;100.00;101149.38;5032752;28;20048;-76
2023/04/05 04:37:59;;;;;;;9.50;5.80;;;;;;;1.71;100.00;101150.00;5009920;28;20030;-76
2023/04/05 04:40:31;;;;;;;9.23;6.13;;;;;;;1.73;100.00;101158.00;5029959;28;20064;-76
2023/04/05 04:42:57;;;;;;;11.43;6.25;;;;;;;1.74;100.00;101154.22;5049864;28;20032;-76
2023/04/05 04:45:23;;;;;;;11.02;6.38;;;;;;;1.75;100.00;101150.41;5013942;28;20056;-76
2023/04/05 04:47:48;;;;;;;10.25;6.05;;;;;;;1.77;100.00;101153.75;5025962;28;20482;-76
2023/04/05 04:50:14;;;;;;;11.23;6.63;;;;;;;1.81;100.00;101152.25;5017441;28;20041;-76
2023/04/05 04:52:40;;;;;;;10.90;7.05;;;;;;;1.78;100.00;101148.09;5022408;28;20038;-76
2023/04/05 04:55:07;;;;;;;9.70;6.25;;;;;;;1.85;100.00;101149.94;5037079;28;20113;-76
2023/04/05 04:57:32;;;;;;;13.07;6.35;;;;;;;1.89;100.00;101156.63;5010488;28;20049;-76
2023/04/05 04:59:58;;;;;;;9.98;6.40;;;;;;;1.90;100.00;101150.94;5042179;28;20038;-76
2023/04/05 05:02:24;;;;;;;10.20;6.28;;;;;;;1.93;100.00;101150.50;5028740;28;20034;-76
2023/04/05 05:04:50;;;;;;;11.25;6.65;;;;;;;1.91;100.00;101154.53;5000177;28;20030;-76
2023/04/05 05:07:16;;;;;;;11.57;7.30;;;;;;;1.94;100.00;101148.59;5000657;28;20033;-76
2023/04/05 05:09:42;;;;;;;12.68;7.55;;;;;;;1.99;100.00;101157.81;5034769;28;20502;-76
2023/04/05 05:12:07;;;;;;;16.17;7.88;;;;;;;1.97;100.00;101157.19;5033490;28;20021;-76
2023/04/05 05:14:33;;;;;;;19.23;8.85;;;;;;;1.99;100.00;101151.50;5016940;28;20426;-77
2023/04/05 05:16:58;;;;;;;17.05;9.13;;;;;;;1.98;100.00;101155.31;5015462;28;20022;-76
2023/04/05 05:19:24;;;;;;;21.00;8.10;;;;;;;1.96;100.00;101154.69;5035595;28;20037;-76
2023/04/05 05:21:51;;;;;;;17.15;8.48;;;;;;;2.02;100.00;101156.56;5003766;28;20030;-76
2023/04/05 05:24:16;;;;;;;19.30;9.70;;;;;;;2.01;100.00;101152.16;5017059;28;20029;-76
2023/04/05 05:26:42;;;;;;;20.33;9.82;;;;;;;2.04;100.00;101157.19;5015872;28;20048;-76
2023/04/05 05:29:08;;;;;;;20.38;9.57;;;;;;;2.04;100.00;101154.44;5029988;28;20414;-76
2023/04/05 05:31:33;;;;;;;27.92;12.43;;;;;;;2.07;100.00;101162.22;5041305;28;20376;-76
2023/04/05 05:33:59;;;;;;;29.48;13.32;;;;;;;2.07;100.00;101155.91;5004793;28;20030;-76
2023/04/05 05:36:24;;;;;;;30.88;14.82;;;;;;;2.07;100.00;101158.63;5053096;28;20044;-77
2023/04/05 05:38:51;;;;;;;30.02;14.02;;;;;;;2.07;100.00;101161.38;5036608;28;20029;-76
2023/04/05 05:41:17;;;;;;;31.02;13.45;;;;;;;2.07;100.00;101164.13;5020261;28;20104;-76
2023/04/05 05:43:42;;;;;;;29.20;13.35;;;;;;;2.11;100.00;101160.69;5037044;28;20116;-76
2023/04/05 05:46:08;;;;;;;27.23;12.15;;;;;;;2.12;100.00;101161.56;5040928;28;20068;-76
2023/04/05 05:48:33;;;;;;;25.63;12.43;;;;;;;2.10;100.00;101164.50;5021241;28;20083;-77
2023/04/05 05:51:00;;;;;;;25.00;11.50;;;;;;;2.10;100.00;101161.75;5020391;28;20421;-76
2023/04/05 05:53:26;;;;;;;23.05;11.40;;;;;;;2.12;100.00;101167.03;5036324;28;20075;-77
2023/04/05 05:55:51;;;;;;;23.48;11.45;;;;;;;2.10;100.00;101169.16;4985246;28;20033;-76
2023/04/05 05:58:17;;;;;;;24.58;11.68;;;;;;;2.13;100.00;101174.19;5033204;28;20494;-76
2023/04/05 06:00:43;;;;;;;22.05;11.00;;;;;;;2.16;100.00;101173.72;5055535;28;20029;-77
2023/04/05 06:03:09;;;;;;;22.45;11.07;;;;;;;2.17;100.00;101169.91;5036429;28;20033;-76
2023/04/05 06:05:35;;;;;;;24.05;11.18;;;;;;;2.21;100.00;101168.44;5003688;28;20037;-77
2023/04/05 06:08:02;;;;;;;18.83;10.98;;;;;;;2.25;100.00;101177.88;5000433;28;20033;-77
2023/04/05 06:10:28;;;;;;;18.98;10.88;;;;;;;2.31;100.00;101171.50;5025341;28;20525;-77
2023/04/05 06:12:54;;;;;;;19.40;10.27;;;;;;;2.37;100.00;101170.63;5055725;28;20030;-77
2023/04/05 06:15:20;;;;;;;21.73;10.63;;;;;;;2.42;100.00;101167.19;5019663;28;20516;-77
2023/04/05 06:17:45;;;;;;;20.77;10.07;;;;;;;2.46;100.00;101174.75;5020011;28;20082;-76
2023/04/05 06:20:11;;;;;;;16.75;9.82;;;;;;;2.50;100.00;101166.06;5035200;28;20018;-77
2023/04/05 06:22:39;;;;;;;19.80;9.85;;;;;;;2.56;100.00;101165.16;5019167;28;20053;-77
2023/04/05 06:25:06;;;;;;;17.52;9.85;;;;;;;2.58;100.00;101163.88;5003256;28;20041;-77
2023/04/05 06:27:31;;;;;;;17.08;9.88;;;;;;;2.61;100.00;101159.84;5014840;28;20722;-77
2023/04/05 06:29:59;;;;;;;16.52;9.35;;;;;;;2.66;100.00;101173.72;5036162;28;20045;-77
2023/04/05 06:32:24;;;;;;;16.08;8.90;;;;;;;2.70;100.00;101166.72;5032797;28;20026;-77
2023/04/05 06:34:50;;;;;;;15.52;9.18;;;;;;;2.72;100.00;101167.34;5036577;28;20033;-77
2023/04/05 06:37:15;;;;;;;16.77;9.70;;;;;;;2.76;100.00;101168.56;5017471;28;20038;-77
2023/04/05 06:39:41;;;;;;;16.27;9.65;;;;;;;2.79;100.00;101167.28;5035602;28;20041;-78
2023/04/05 06:42:06;;;;;;;16.95;10.35;;;;;;;2.83;100.00;101165.75;5001548;28;20079;-77
2023/04/05 06:44:32;;;;;;;15.65;9.63;;;;;;;2.87;100.00;101169.72;5018830;28;20029;-77
2023/04/05 06:46:57;;;;;;;17.77;9.50;;;;;;;2.89;100.00;101156.63;5035803;28;20036;-78
2023/04/05 06:49:22;;;;;;;15.40;9.75;;;;;;;2.93;100.00;101157.03;5051771;28;20056;-77
2023/04/05 06:51:48;;;;;;;19.88;9.52;;;;;;;2.98;100.00;101157.16;5019037;28;20556;-77
2023/04/05 06:54:14;;;;;;;14.15;8.60;;;;;;;3.01;100.00;101153.94;5014426;28;20035;-78
2023/04/05 06:56:40;;;;;;;15.95;9.32;;;;;;;3.05;100.00;101157.94;5047468;28;20038;-78
2023/04/05 06:59:05;;;;;;;14.23;9.45;;;;;;;3.09;100.00;101154.50;5018890;28;20030;-78
2023/04/05 07:01:30;;;;;;;17.73;10.57;;;;;;;3.16;100.00;101151.66;5040429;28;20029;-78
2023/04/05 07:03:56;;;;;;;18.52;11.10;;;;;;;3.22;100.00;101160.91;5019691;28;20060;-78
2023/04/05 07:06:22;;;;;;;22.35;10.02;;;;;;;3.28;100.00;101160.81;5031702;28;20037;-78
2023/04/05 07:08:48;;;;;;;22.65;13.10;;;;;;;3.34;100.00;101170.88;5045858;28;20027;-78
2023/04/05 07:11:14;;;;;;;20.15;11.50;;;;;;;3.41;100.00;101156.22;5002350;28;20040;-78
2023/04/05 07:13:39;;;;;;;14.68;9.52;;;;;;;3.48;100.00;101155.09;5002039;28;20104;-79
2023/04/05 07:16:05;;;;;;;22.27;10.98;;;;;;;3.56;100.00;101153.91;5019085;28;20104;-78
2023/04/05 07:18:31;;;;;;;18.85;10.13;;;;;;;3.63;100.00;101151.91;5018469;28;20152;-78
2023/04/05 07:21:00;;;;;;;20.15;11.15;;;;;;;3.71;100.00;101153.50;5018685;28;20029;-78
2023/04/05 07:23:26;;;;;;;15.93;10.73;;;;;;;3.80;100.00;101152.09;5016806;28;20038;-78
2023/04/05 07:25:53;;;;;;;15.73;10.23;;;;;;;3.89;100.00;101152.59;5020780;28;20029;-78
2023/04/05 07:28:18;;;;;;;17.77;11.25;;;;;;;3.98;100.00;101153.94;4983533;28;20022;-78
2023/04/05 07:30:43;;;;;;;21.33;12.40;;;;;;;4.07;100.00;101151.69;5032165;28;20099;-78
2023/04/05 07:33:09;;;;;;;20.08;11.98;;;;;;;4.16;100.00;101147.53;5015085;28;20026;-78
2023/04/05 07:35:35;;;;;;;20.58;11.93;;;;;;;4.24;100.00;101152.72;5034316;28;20095;-77
2023/04/05 07:38:01;;;;;;;18.55;11.05;;;;;;;4.32;100.00;101144.13;5001534;28;20029;-78
2023/04/05 07:40:26;;;;;;;18.95;11.65;;;;;;;4.42;100.00;101136.09;5032624;28;20037;-78
2023/04/05 07:42:52;;;;;;;16.45;9.65;;;;;;;4.52;100.00;101134.69;4985657;28;20028;-78
2023/04/05 07:45:18;;;;;;;16.20;9.43;;;;;;;4.63;100.00;101144.84;5034887;28;20436;-78
2023/04/05 07:47:43;;;;;;;12.65;8.25;;;;;;;4.72;100.00;101148.91;5033493;28;20045;-78
2023/04/05 07:50:10;;;;;;;16.08;9.02;;;;;;;4.84;100.00;101146.16;5036091;28;20049;-78
2023/04/05 07:52:36;;;;;;;14.35;8.80;;;;;;;4.94;100.00;101146.38;5034551;28;20060;-78
2023/04/05 07:55:02;;;;;;;15.18;8.70;;;;;;;5.05;100.00;101140.03;5034208;28;20030;-78
2023/04/05 07:57:27;;;;;;;18.42;8.38;;;;;;;5.17;100.00;101148.25;4993621;28;20044;-78
2023/04/05 07:59:54;;;;;;;13.55;9.05;;;;;;;5.27;100.00;101142.16;4998390;28;20026;-78
2023/04/05 08:02:20;;;;;;;16.13;8.75;;;;;;;5.39;100.00;101142.94;5045698;28;20040;-78
2023/04/05 08:04:45;;;;;;;12.43;8.63;;;;;;;5.48;100.00;101140.63;5016598;28;20038;-78
2023/04/05 08:07:11;;;;;;;16.58;8.85;;;;;;;5.59;100.00;101151.59;5017335;28;20021;-78
2023/04/05 08:09:36;;;;;;;17.60;10.23;;;;;;;5.71;100.00;101142.44;5026776;28;20117;-78
2023/04/05 08:12:02;;;;;;;14.98;8.48;;;;;;;5.83;100.00;101151.53;5032846;28;20040;-78
2023/04/05 08:14:28;;;;;;;13.10;8.02;;;;;;;5.90;100.00;101146.66;4999535;28;20017;-78
2023/04/05 08:16:53;;;;;;;15.68;7.63;;;;;;;6.00;100.00;101149.66;5003271;28;20034;-78
2023/04/05 08:19:19;;;;;;;17.20;8.48;;;;;;;6.14;100.00;101143.84;5047107;28;20438;-78
2023/04/05 08:21:44;;;;;;;17.00;8.68;;;;;;;6.26;100.00;101152.84;5028696;28;20037;-78
2023/04/05 08:24:10;;;;;;;14.40;8.40;;;;;;;6.33;100.00;101145.28;5033826;28;20445;-78
2023/04/05 08:26:35;;;;;;;17.83;9.68;;;;;;;6.48;100.00;101150.19;5033650;28;20042;-79
2023/04/05 08:29:01;;;;;;;16.40;8.95;;;;;;;6.56;100.00;101143.41;5017227;28;20021;-78
2023/04/05 08:31:27;;;;;;;15.52;8.30;;;;;;;6.68;100.00;101144.97;5022286;28;20060;-78
2023/04/05 08:33:52;;;;;;;11.98;7.00;;;;;;;6.80;100.00;101150.44;5017633;28;20026;-78
2023/04/05 08:36:18;;;;;;;14.82;7.82;;;;;;;6.92;100.00;101140.09;5017044;28;20025;-78
2023/04/05 08:38:43;;;;;;;14.77;7.63;;;;;;;7.06;100.00;101148.03;4997666;28;20037;-78
2023/04/05 08:41:21;;;;;;;14.18;8.27;;;;;;;7.21;100.00;101136.34;5058315;28;20034;-78
2023/04/05 08:44:02;;;;;;;15.35;8.30;;;;;;;7.37;100.00;101146.50;5018048;28;20511;-78
2023/04/05 08:46:32;;;;;;;16.13;7.82;;;;;;;7.54;100.00;101143.66;5033715;28;20537;-78
2023/04/05 08:48:58;;;;;;;12.68;7.70;;;;;;;7.69;100.00;101143.00;4997967;28;20046;-78
2023/04/05 08:51:25;;;;;;;11.00;7.35;;;;;;;7.82;100.00;101140.66;5013399;28;20033;-78
2023/04/05 08:53:50;;;;;;;12.00;7.35;;;;;;;8.02;100.00;101147.50;5033369;28;20382;-78
2023/04/05 08:56:19;;;;;;;14.15;7.68;;;;;;;8.18;100.00;101141.00;5000432;28;20025;-78
2023/04/05 08:58:48;;;;;;;13.75;6.68;;;;;;;8.34;100.00;101130.91;5038665;28;20042;-78
2023/04/05 09:01:14;;;;;;;13.63;8.70;;;;;;;8.49;100.00;101128.28;5043464;28;20084;-79
2023/04/05 09:03:39;;;;;;;12.90;8.27;;;;;;;8.68;100.00;101133.41;5025067;28;20034;-80
2023/04/05 09:06:10;;;;;;;19.17;9.18;;;;;;;8.90;100.00;101134.13;4988030;28;20088;-80
2023/04/05 09:08:36;;;;;;;13.75;8.02;;;;;;;9.10;100.00;101135.34;5031996;28;20064;-79
2023/04/05 09:11:02;;;;;;;16.80;8.35;;;;;;;9.32;100.00;101126.84;5017791;28;20064;-79
2023/04/05 09:13:27;;;;;;;17.20;9.20;;;;;;;9.54;100.00;101121.94;5046742;28;20025;-80
2023/04/05 09:15:53;;;;;;;16.02;9.63;;;;;;;9.75;100.00;101119.22;5020991;28;20035;-79
2023/04/05 09:18:18;;;;;;;14.85;8.73;;;;;;;9.93;100.00;101118.72;5020925;28;20138;-79
2023/04/05 09:20:44;;;;;;;15.75;7.70;;;;;;;10.15;100.00;101117.63;5053946;28;20186;-79
2023/04/05 09:23:09;;;;;;;19.20;10.20;;;;;;;10.37;100.00;101121.00;5000719;28;20030;-79
2023/04/05 09:25:37;;;;;;;14.95;8.85;;;;;;;10.56;100.00;101118.50;5012459;28;20387;-79
2023/04/05 09:28:03;;;;;;;13.32;8.02;;;;;;;10.77;100.00;101122.06;5036946;28;20060;-79
2023/04/05 09:30:29;;;;;;;16.60;8.88;;;;;;;10.98;100.00;101124.78;5023201;28;20112;-80
2023/04/05 09:32:55;;;;;;;13.38;8.05;;;;;;;11.13;99.76;101117.25;5022042;28;20029;-79
2023/04/05 09:35:25;;;;;;;17.63;9.60;;;;;;;11.27;96.08;101119.44;5034007;28;20038;-79
2023/04/05 09:37:54;;;;;;;13.40;7.25;;;;;;;11.41;94.91;101126.88;5053278;28;20045;-80
2023/04/05 09:40:20;;;;;;;17.02;10.25;;;;;;;11.53;92.46;101118.22;4988398;28;20033;-80
2023/04/05 09:42:46;;;;;;;11.50;7.60;;;;;;;11.63;92.03;101125.66;5000894;28;20561;-80
2023/04/05 09:45:12;;;;;;;12.30;6.75;;;;;;;11.71;88.50;101122.28;5036690;28;20026;-80
2023/04/05 09:47:37;;;;;;;16.13;8.52;;;;;;;11.79;88.53;101118.91;5038370;28;20040;-81
2023/04/05 09:50:24;;;;;;;21.67;10.05;;;;;;;11.82;88.22;101118.31;5040740;28;20044;-80
2023/04/05 09:52:51;;;;;;;11.75;7.63;;;;;;;11.89;89.25;101115.25;5021992;28;20048;-80
2023/04/05 09:55:26;;;;;;;12.00;8.00;;;;;;;12.01;87.01;101114.91;5036725;28;20025;-80
2023/04/05 09:57:52;;;;;;;16.05;8.05;;;;;;;12.10;88.08;101118.72;5017672;28;20120;-81
2023/04/05 10:00:19;;;;;;;12.50;7.78;;;;;;;12.21;87.51;101114.75;5044598;28;20037;-80
2023/04/05 10:02:48;;;;;;;13.95;9.05;;;;;;;12.38;86.83;101114.34;5003419;28;20574;-80
2023/04/05 10:05:14;;;;;;;14.30;8.50;;;;;;;12.53;85.83;101116.16;5002647;28;20048;-80
2023/04/05 10:07:43;;;;;;;14.70;8.85;;;;;;;12.70;86.90;101118.50;5015221;28;20066;-80
2023/04/05 10:10:11;;;;;;;15.15;8.40;;;;;;;12.87;89.51;101110.53;5036445;28;20026;-81
2023/04/05 10:12:44;;;;;;;11.73;7.55;;;;;;;13.05;84.82;101111.72;4987552;28;20048;-80
2023/04/05 10:15:10;;;;;;;15.85;9.38;;;;;;;13.22;83.21;101116.81;5019788;28;20505;-81
2023/04/05 10:17:52;;;;;;;13.20;8.52;;;;;;;13.41;85.41;101116.91;5020110;28;20053;-81
2023/04/05 10:20:21;;;;;;;15.38;9.18;;;;;;;13.56;81.69;101111.13;5026303;28;20085;-81
2023/04/05 10:22:56;;;;;;;12.18;7.80;;;;;;;13.73;82.41;101102.22;5053347;28;20041;-81
2023/04/05 10:25:43;;;;;;;13.07;8.45;;;;;;;13.92;78.72;101107.81;5052068;28;20045;-80
2023/04/05 10:28:34;;;;;;;11.85;7.93;;;;;;;14.14;78.24;101110.00;5022148;28;20389;-81
2023/04/05 10:31:11;;;;;;;12.20;8.00;;;;;;;14.33;74.58;101111.94;5027551;28;20038;-81
2023/04/05 10:33:44;;;;;;;16.23;8.27;;;;;;;14.48;76.20;101117.28;5014823;28;20545;-81
2023/04/05 10:36:45;;;;;;;14.13;8.32;;;;;;;14.67;73.50;101108.88;5051849;28;20112;-81
2023/04/05 10:39:35;;;;;;;12.18;7.97;;;;;;;14.82;72.76;101111.41;5011023;28;20509;-81
2023/04/05 10:42:19;;;;;;;10.10;6.25;;;;;;;15.01;72.22;101105.69;5043553;28;20022;-81
2023/04/05 10:44:45;;;;;;;13.35;9.10;;;;;;;15.16;70.76;101108.22;5037678;28;20029;-81
2023/04/05 10:47:13;;;;;;;12.70;8.90;;;;;;;15.29;69.22;101105.72;5035164;28;20029;-81
2023/04/05 10:49:39;;;;;;;15.20;8.85;;;;;;;15.45;71.04;101109.03;5012868;28;20077;-81
2023/04/05 10:52:04;;;;;;;17.25;8.90;;;;;;;15.60;70.60;101105.88;5048961;28;20026;-81
2023/04/05 10:54:35;;;;;;;14.63;8.85;;;;;;;15.72;72.04;101102.59;5019183;28;20029;-81
2023/04/05 10:57:08;;;;;;;11.90;7.22;;;;;;;15.85;68.91;101099.78;5035658;28;20109;-81
2023/04/05 10:59:33;;;;;;;;;;;;;;;15.99;67.01;101098.88;5034828;28;20117;-81
2023/04/05 11:01:59;;;;;;;10.80;7.43;;;;;;;16.07;68.62;101104.56;5040561;28;19960;-81
2023/04/05 11:04:25;;;;;;;11.20;7.82;;;;;;;16.18;69.76;101105.13;5053158;28;20033;-81
2023/04/05 11:07:16;;;;;;;14.32;10.07;;;;;;;16.35;69.45;101100.81;5035360;28;20041;-81
2023/04/05 11:09:54;;;;;;;12.63;7.70;;;;;;;16.45;67.54;101094.97;5035242;28;20084;-81
2023/04/05 11:12:20;;;;;;;12.95;8.85;;;;;;;16.54;65.16;101102.25;5036812;28;20034;-81
2023/04/05 11:14:46;;;;;;;14.90;9.80;;;;;;;16.65;65.41;101100.03;5028400;28;20150;-81
2023/04/05 11:17:27;;;;;;;12.07;8.95;;;;;;;16.75;64.85;101099.75;5054874;28;20026;-81